Time;durP1;ratioP1;P1;durP2;ratioP2;P2;SDS_P1;SDS_P2;PMS_P1;PMS_P2;Temp;Humidity;BMP_temperature;BMP_pressure;BME280_temperature;BME280_humidity;BME280_pressure;Samples;Min_cycle;Max_cycle;Signal;HPM_P1;HPM_P2
2024/01/23 00:00:12;;;;;;;40.90;18.77;;;;;;;-6.87;100.00;61302.47;5031878;28;20222;-80
2024/01/23 00:02:38;;;;;;;31.95;15.70;;;;;;;-6.77;100.00;61313.16;5023080;28;20219;-80
2024/01/23 00:05:06;;;;;;;47.38;21.55;;;;;;;-6.81;100.00;61314.03;5030197;28;20298;-80
2024/01/23 00:07:33;;;;;;;38.53;18.38;;;;;;;-6.85;100.00;61307.47;5036622;28;20206;-80
2024/01/23 00:10:00;;;;;;;55.28;25.00;;;;;;;-6.88;100.00;61294.53;5025141;28;20226;-79
2024/01/23 00:12:27;;;;;;;51.53;20.55;;;;;;;-6.92;100.00;61295.44;5038050;28;20229;-80
2024/01/23 00:14:57;;;;;;;37.63;17.27;;;;;;;-6.93;100.00;61291.94;5032154;28;20227;-79
2024/01/23 00:17:26;;;;;;;59.28;25.13;;;;;;;-6.93;100.00;61301.81;5032852;28;20195;-81
2024/01/23 00:19:54;;;;;;;63.17;28.95;;;;;;;-6.94;100.00;61298.34;5021329;28;20223;-81
2024/01/23 00:22:21;;;;;;;81.20;34.45;;;;;;;-6.94;100.00;61295.34;5034710;28;20234;-83
2024/01/23 00:24:51;;;;;;;78.45;35.40;;;;;;;-6.97;100.00;61289.84;5033218;28;20226;-83
2024/01/23 00:27:18;;;;;;;69.18;33.13;;;;;;;-6.94;100.00;61295.34;5022865;28;20206;-81
2024/01/23 00:29:45;;;;;;;53.78;25.95;;;;;;;-7.22;100.00;61265.41;5019477;28;20294;-81
2024/01/23 00:32:12;;;;;;;80.45;32.55;;;;;;;-7.04;100.00;61287.66;5020274;28;20243;-81
2024/01/23 00:34:40;;;;;;;79.65;31.52;;;;;;;-7.01;100.00;61288.22;5025368;28;20223;-80
2024/01/23 00:37:07;;;;;;;72.30;32.53;;;;;;;-7.08;100.00;61284.09;5033316;28;20213;-80
2024/01/23 00:39:37;;;;;;;84.13;35.72;;;;;;;-7.05;100.00;61284.66;5034953;28;20227;-80
2024/01/23 00:42:05;;;;;;;73.80;32.22;;;;;;;-7.03;100.00;61281.75;5033279;28;20385;-80
2024/01/23 00:44:32;;;;;;;73.30;28.95;;;;;;;-7.01;100.00;61288.22;5034685;28;20219;-81
2024/01/23 00:46:59;;;;;;;67.20;29.08;;;;;;;-7.01;100.00;61278.84;5025298;28;20203;-81
2024/01/23 00:49:26;;;;;;;58.35;22.02;;;;;;;-7.11;100.00;61278.56;5036916;28;20261;-81
2024/01/23 00:51:54;;;;;;;58.50;22.70;;;;;;;-7.05;100.00;61284.16;5033734;28;20209;-80
2024/01/23 00:54:21;;;;;;;39.70;17.65;;;;;;;-7.09;100.00;61280.59;5031974;28;20257;-81
2024/01/23 00:56:48;;;;;;;34.35;15.90;;;;;;;-7.04;100.00;61285.19;5029046;28;20211;-80
2024/01/23 00:59:15;;;;;;;50.83;19.00;;;;;;;-7.05;100.00;61279.72;5025668;28;20217;-80
2024/01/23 01:01:42;;;;;;;38.00;17.85;;;;;;;-7.06;100.00;61276.25;5027571;28;20257;-82
2024/01/23 01:04:09;;;;;;;50.40;21.27;;;;;;;-7.37;100.00;61252.13;5034423;28;20202;-81
2024/01/23 01:06:36;;;;;;;54.83;26.63;;;;;;;-7.04;100.00;61280.22;5021874;28;20250;-80
2024/01/23 01:09:06;;;;;;;45.72;19.88;;;;;;;-7.04;100.00;61290.63;5014881;28;20203;-80
2024/01/23 01:11:33;;;;;;;47.47;19.52;;;;;;;-7.06;100.00;61281.19;5026103;28;20198;-82
2024/01/23 01:14:00;;;;;;;47.60;22.00;;;;;;;-7.12;100.00;61270.63;5023073;28;20226;-80
2024/01/23 01:16:28;;;;;;;64.40;26.52;;;;;;;-7.06;100.00;61283.66;5030528;28;20203;-81
2024/01/23 01:18:55;;;;;;;56.53;25.98;;;;;;;-7.25;100.00;61264.81;5028170;28;20233;-81
2024/01/23 01:21:23;;;;;;;56.25;26.27;;;;;;;-7.13;100.00;61281.97;5028921;28;20243;-81
2024/01/23 01:23:50;;;;;;;80.60;34.42;;;;;;;-7.05;100.00;61282.19;5022351;28;20534;-80
2024/01/23 01:26:18;;;;;;;75.55;30.40;;;;;;;-7.31;100.00;61256.25;5040832;28;20222;-81
2024/01/23 01:28:46;;;;;;;48.42;23.65;;;;;;;-7.15;100.00;61274.50;5022743;28;20198;-82
2024/01/23 01:31:13;;;;;;;67.50;32.22;;;;;;;-7.09;100.00;61275.66;5022259;28;20520;-82
2024/01/23 01:33:40;;;;;;;54.30;23.00;;;;;;;-7.23;100.00;61268.84;5022470;28;20210;-80
2024/01/23 01:36:08;;;;;;;42.22;21.02;;;;;;;-7.22;100.00;61270.34;5031526;28;20474;-81
2024/01/23 01:38:35;;;;;;;35.00;15.77;;;;;;;-7.17;100.00;61272.47;5034414;28;20202;-81
2024/01/23 01:41:03;;;;;;;50.28;20.95;;;;;;;-7.15;100.00;61272.03;5018648;28;20226;-80
2024/01/23 01:43:32;;;;;;;41.33;19.77;;;;;;;-7.12;100.00;61275.06;5026108;28;20226;-80
2024/01/23 01:46:12;;;;;;;41.30;17.35;;;;;;;-7.11;100.00;61281.03;5017105;28;20227;-80
2024/01/23 01:48:39;;;;;;;41.85;18.52;;;;;;;-7.06;100.00;61288.09;5032361;28;20198;-82
2024/01/23 01:51:07;;;;;;;66.07;30.10;;;;;;;-7.09;100.00;61282.56;5035171;28;20215;-82
2024/01/23 01:53:34;;;;;;;78.65;32.25;;;;;;;-7.20;100.00;61262.50;5035049;28;20211;-82
2024/01/23 01:56:00;;;;;;;44.08;21.35;;;;;;;-7.05;100.00;61284.16;5032088;28;20224;-83
2024/01/23 01:58:28;;;;;;;38.72;17.80;;;;;;;-7.01;100.00;61285.75;5031916;28;20207;-80
2024/01/23 02:00:57;;;;;;;32.90;16.23;;;;;;;-7.01;100.00;61283.78;5032124;28;20262;-81
2024/01/23 02:03:25;;;;;;;39.78;16.42;;;;;;;-7.10;100.00;61282.06;5033257;28;20237;-81
2024/01/23 02:05:52;;;;;;;35.63;15.60;;;;;;;-7.03;100.00;61286.69;5031477;28;20234;-81
2024/01/23 02:08:20;;;;;;;38.53;18.63;;;;;;;-7.29;100.00;61255.31;5032998;28;20262;-81
2024/01/23 02:10:46;;;;;;;21.10;10.73;;;;;;;-7.12;100.00;61273.13;5034204;28;20221;-81
2024/01/23 02:13:14;;;;;;;51.88;21.55;;;;;;;-7.22;100.00;61270.34;5030803;28;20199;-83
2024/01/23 02:15:41;;;;;;;52.17;22.92;;;;;;;-7.04;100.00;61285.19;5012084;28;20230;-81
2024/01/23 02:18:09;;;;;;;36.78;15.77;;;;;;;-7.22;100.00;61270.34;5026402;28;20409;-83
2024/01/23 02:20:36;;;;;;;23.85;12.32;;;;;;;-7.16;100.00;61271.50;5031904;28;20254;-80
2024/01/23 02:23:04;;;;;;;26.63;13.35;;;;;;;-7.08;100.00;61279.16;5032072;28;20577;-81
2024/01/23 02:25:32;;;;;;;25.40;12.48;;;;;;;-7.18;100.00;61271.44;5017923;28;20241;-79
2024/01/23 02:28:00;;;;;;;23.08;12.57;;;;;;;-7.21;100.00;61268.38;5013395;28;20191;-80
2024/01/23 02:30:27;;;;;;;22.50;12.75;;;;;;;-7.19;100.00;61266.00;5013011;28;20227;-80
2024/01/23 02:32:54;;;;;;;23.15;12.88;;;;;;;-7.33;100.00;61248.75;5022937;28;20212;-80
2024/01/23 02:35:21;;;;;;;31.83;15.27;;;;;;;-7.29;100.00;61260.25;5010736;28;20231;-80
2024/01/23 02:37:48;;;;;;;37.90;17.70;;;;;;;-7.36;100.00;61250.66;5024603;28;20415;-80
2024/01/23 02:40:15;;;;;;;56.72;22.75;;;;;;;-7.36;100.00;61258.06;5012429;28;20215;-80
2024/01/23 02:42:43;;;;;;;66.05;27.55;;;;;;;-7.34;100.00;61250.22;5030252;28;20246;-80
2024/01/23 02:45:10;;;;;;;59.72;25.23;;;;;;;-7.39;100.00;61250.09;5031948;28;20233;-81
2024/01/23 02:47:37;;;;;;;38.67;17.05;;;;;;;-7.33;100.00;61261.13;5034478;28;20212;-80
2024/01/23 02:50:05;;;;;;;25.13;12.85;;;;;;;-7.32;100.00;61260.19;5019756;28;20242;-81
2024/01/23 02:52:32;;;;;;;15.70;8.38;;;;;;;-7.33;100.00;61261.13;5033455;28;20198;-81
2024/01/23 02:54:59;;;;;;;23.45;10.30;;;;;;;-7.39;100.00;61248.13;5031605;28;20237;-80
2024/01/23 02:57:27;;;;;;;20.73;10.35;;;;;;;-7.36;100.00;61255.59;5027091;28;20195;-80
2024/01/23 02:59:55;;;;;;;17.55;9.88;;;;;;;-7.39;100.00;61248.13;5018151;28;20234;-82
2024/01/23 03:02:23;;;;;;;25.80;11.38;;;;;;;-7.36;100.00;61253.66;5016212;28;20298;-82
2024/01/23 03:04:50;;;;;;;30.95;15.05;;;;;;;-7.34;100.00;61255.16;5019262;28;20242;-82
2024/01/23 03:07:18;;;;;;;24.52;11.43;;;;;;;-7.29;100.00;61255.31;5030570;28;20210;-82
2024/01/23 03:09:46;;;;;;;22.55;10.45;;;;;;;-7.32;100.00;61257.72;5030765;28;20222;-84
2024/01/23 03:12:17;;;;;;;25.08;10.88;;;;;;;-7.27;100.00;61259.81;5029617;28;20260;-82
2024/01/23 03:14:44;;;;;;;22.02;10.20;;;;;;;-7.29;100.00;61257.78;5025321;28;20245;-81
2024/01/23 03:17:12;;;;;;;29.85;15.20;;;;;;;-7.36;100.00;61253.66;5026984;28;20210;-82
2024/01/23 03:19:40;;;;;;;29.85;12.23;;;;;;;-7.27;100.00;61257.84;5017903;28;20223;-82
2024/01/23 03:22:07;;;;;;;13.07;7.13;;;;;;;-7.25;100.00;61269.28;5019379;28;20234;-82
2024/01/23 03:24:34;;;;;;;30.33;12.52;;;;;;;-7.26;100.00;61263.81;5032284;28;20235;-82
2024/01/23 03:27:03;;;;;;;25.13;11.98;;;;;;;-7.27;100.00;61257.84;5031309;28;20199;-82
2024/01/23 03:29:31;;;;;;;18.73;8.93;;;;;;;-7.26;100.00;61260.81;5030017;28;20289;-83
2024/01/23 03:31:58;;;;;;;15.98;7.35;;;;;;;-7.26;100.00;61263.81;5030949;28;20202;-82
2024/01/23 03:34:27;;;;;;;11.68;5.93;;;;;;;-7.19;100.00;61270.41;5026040;28;20249;-82
2024/01/23 03:36:55;;;;;;;35.40;14.85;;;;;;;-7.20;100.00;61269.41;5034775;28;20214;-82
2024/01/23 03:39:22;;;;;;;16.88;7.60;;;;;;;-7.10;100.00;61279.59;5020880;28;20227;-81
2024/01/23 03:41:49;;;;;;;39.67;16.05;;;;;;;-7.07;100.00;61282.63;5012643;28;20187;-81
2024/01/23 03:44:16;;;;;;;31.88;15.68;;;;;;;-7.20;100.00;61272.41;5018072;28;20235;-81
2024/01/23 03:46:43;;;;;;;24.60;12.35;;;;;;;-7.43;100.00;61246.53;5019529;28;20219;-81
2024/01/23 03:49:09;;;;;;;20.50;10.13;;;;;;;-7.41;100.00;61240.63;5016314;28;20242;-80
2024/01/23 03:51:38;;;;;;;22.48;12.50;;;;;;;-7.45;100.00;61244.50;5032488;28;20202;-81
2024/01/23 03:54:05;;;;;;;13.60;7.63;;;;;;;-7.47;100.00;61242.44;5036102;28;20302;-82
2024/01/23 03:56:32;;;;;;;20.80;10.10;;;;;;;-7.58;100.00;61228.81;5030610;28;20207;-81
2024/01/23 03:58:59;;;;;;;27.88;11.80;;;;;;;-7.63;100.00;61225.69;5016874;28;20200;-83
2024/01/23 04:01:26;;;;;;;22.80;10.27;;;;;;;-7.91;100.00;61199.69;5021034;28;20387;-84
2024/01/23 04:03:53;;;;;;;21.65;11.45;;;;;;;-7.94;100.00;61194.16;5033689;28;20238;-83
2024/01/23 04:06:20;;;;;;;21.05;9.35;;;;;;;-7.83;100.00;61198.44;5032397;28;20211;-84
2024/01/23 04:08:49;;;;;;;13.30;7.18;;;;;;;-7.88;100.00;61200.75;5015699;28;20207;-83
2024/01/23 04:11:16;;;;;;;27.48;10.73;;;;;;;-7.98;100.00;61188.13;5016482;28;20250;-82
2024/01/23 04:13:44;;;;;;;18.08;8.88;;;;;;;-7.96;100.00;61192.63;5031081;28;20206;-83
2024/01/23 04:16:10;;;;;;;17.70;8.52;;;;;;;-7.97;100.00;61194.06;5032951;28;20246;-83
2024/01/23 04:18:38;;;;;;;19.38;9.68;;;;;;;-8.09;100.00;61181.38;5029302;28;20206;-83
2024/01/23 04:21:06;;;;;;;17.75;9.85;;;;;;;-8.06;100.00;61184.94;5032923;28;20222;-82
2024/01/23 04:23:33;;;;;;;31.50;13.48;;;;;;;-8.06;100.00;61181.97;5033911;28;20234;-81
2024/01/23 04:26:02;;;;;;;25.23;13.15;;;;;;;-8.13;100.00;61177.84;5030291;28;20249;-80
2024/01/23 04:28:29;;;;;;;47.28;18.20;;;;;;;-8.08;100.00;61180.44;5033976;28;20403;-81
2024/01/23 04:30:57;;;;;;;20.48;10.98;;;;;;;-8.16;100.00;61171.81;5024509;28;20291;-81
2024/01/23 04:33:25;;;;;;;21.88;8.88;;;;;;;-8.25;100.00;61162.69;5034640;28;20303;-82
2024/01/23 04:35:52;;;;;;;24.00;11.38;;;;;;;-8.23;100.00;61159.78;5024302;28;20226;-81
2024/01/23 04:38:19;;;;;;;16.73;9.55;;;;;;;-8.26;100.00;61161.66;5013201;28;20230;-83
2024/01/23 04:40:47;;;;;;;14.48;8.38;;;;;;;-8.55;100.00;61130.75;5014434;28;20219;-81
2024/01/23 04:43:16;;;;;;;15.48;7.72;;;;;;;-8.75;100.00;61112.88;5023226;28;20222;-82
2024/01/23 04:45:43;;;;;;;18.77;9.43;;;;;;;-8.36;100.00;61154.47;5016995;28;20227;-82
2024/01/23 04:48:10;;;;;;;21.13;9.88;;;;;;;-8.37;100.00;61146.56;5030863;28;20210;-82
2024/01/23 04:50:38;;;;;;;16.13;8.63;;;;;;;-8.37;100.00;61153.47;5034607;28;20226;-80
2024/01/23 04:53:04;;;;;;;17.40;9.80;;;;;;;-8.48;100.00;61140.31;5036152;28;20225;-77
2024/01/23 04:55:32;;;;;;;30.55;14.13;;;;;;;-8.66;100.00;61124.50;5032158;28;20218;-81
2024/01/23 04:57:59;;;;;;;22.15;10.52;;;;;;;-8.47;100.00;61135.88;5026743;28;20266;-81
2024/01/23 05:00:27;;;;;;;27.65;12.13;;;;;;;-8.52;100.00;61133.78;5031226;28;20288;-80
2024/01/23 05:02:54;;;;;;;36.58;18.00;;;;;;;-8.49;100.00;61136.84;5029514;28;20194;-81
2024/01/23 05:05:21;;;;;;;41.15;19.88;;;;;;;-8.57;100.00;61130.66;5027978;28;20219;-81
2024/01/23 05:07:48;;;;;;;57.72;26.65;;;;;;;-8.67;100.00;61115.56;5013936;28;20210;-80
2024/01/23 05:10:15;;;;;;;50.60;25.60;;;;;;;-8.85;100.00;61102.25;5027670;28;20223;-81
2024/01/23 05:12:42;;;;;;;35.80;17.73;;;;;;;-8.76;100.00;61113.84;5029591;28;20222;-80
2024/01/23 05:15:09;;;;;;;36.75;16.05;;;;;;;-8.76;100.00;61101.50;5032016;28;20234;-81
2024/01/23 05:17:37;;;;;;;23.40;11.57;;;;;;;-8.77;100.00;61107.88;5037698;28;20187;-81
2024/01/23 05:20:06;;;;;;;24.65;13.77;;;;;;;-8.89;100.00;61101.16;5029036;28;20219;-81
2024/01/23 05:22:32;;;;;;;22.15;10.90;;;;;;;-8.97;100.00;61093.00;5032703;28;20202;-81
2024/01/23 05:24:59;;;;;;;24.08;10.68;;;;;;;-8.94;100.00;61093.09;5020556;28;20235;-81
2024/01/23 05:27:27;;;;;;;19.08;8.80;;;;;;;-9.09;100.00;61083.28;5029911;28;20215;-81
2024/01/23 05:29:54;;;;;;;20.40;8.80;;;;;;;-9.29;100.00;61055.59;5015133;28;20227;-82
2024/01/23 05:32:22;;;;;;;17.25;8.00;;;;;;;-9.22;100.00;61062.19;5023377;28;20206;-81
2024/01/23 05:34:50;;;;;;;19.50;9.38;;;;;;;-9.04;100.00;61078.50;5026545;28;20219;-81
2024/01/23 05:37:19;;;;;;;19.48;10.68;;;;;;;-9.06;100.00;61075.97;5033124;28;20269;-80
2024/01/23 05:39:46;;;;;;;23.52;11.75;;;;;;;-8.84;100.00;61103.25;5013908;28;20238;-81
2024/01/23 05:42:13;;;;;;;29.50;14.73;;;;;;;-8.71;100.00;61116.97;5029738;28;20207;-81
2024/01/23 05:44:40;;;;;;;25.15;11.63;;;;;;;-8.63;100.00;61119.66;5033800;28;20235;-80
2024/01/23 05:47:08;;;;;;;29.75;13.00;;;;;;;-8.55;100.00;61133.22;5030925;28;20192;-81
2024/01/23 05:49:36;;;;;;;20.50;10.15;;;;;;;-8.45;100.00;61148.31;5031641;28;20218;-81
2024/01/23 05:52:06;;;;;;;25.40;11.95;;;;;;;-8.60;100.00;61133.06;5028112;28;20187;-81
2024/01/23 05:54:37;;;;;;;24.70;11.05;;;;;;;-8.35;100.00;61156.00;5022586;28;20219;-80
2024/01/23 05:57:05;;;;;;;27.23;13.30;;;;;;;-8.41;100.00;61142.00;5014868;28;20202;-80
2024/01/23 05:59:38;;;;;;;22.67;13.30;;;;;;;-8.48;100.00;61142.78;5025821;28;20219;-80
2024/01/23 06:02:08;;;;;;;29.77;12.95;;;;;;;-8.69;100.00;61119.00;5024301;28;20198;-80
2024/01/23 06:04:35;;;;;;;32.90;15.75;;;;;;;-8.36;100.00;61144.59;5035286;28;20222;-81
2024/01/23 06:07:06;;;;;;;28.02;13.23;;;;;;;-8.44;100.00;61144.38;5030257;28;20211;-80
2024/01/23 06:09:33;;;;;;;28.67;13.88;;;;;;;-8.34;100.00;61154.03;5023025;28;20215;-82
2024/01/23 06:12:00;;;;;;;35.00;13.82;;;;;;;-8.16;100.00;61174.28;5021103;28;20262;-79
2024/01/23 06:14:28;;;;;;;27.58;12.93;;;;;;;-8.25;100.00;61167.63;5020572;28;20227;-82
2024/01/23 06:16:56;;;;;;;29.95;14.30;;;;;;;-8.03;100.00;61180.06;5029645;28;20215;-80
2024/01/23 06:19:23;;;;;;;29.48;13.77;;;;;;;-8.03;100.00;61183.06;5024582;28;20222;-81
2024/01/23 06:21:50;;;;;;;31.40;16.48;;;;;;;-7.90;100.00;61195.75;5027717;28;20193;-80
2024/01/23 06:24:19;;;;;;;28.73;15.38;;;;;;;-7.81;100.00;61207.38;5031281;28;20296;-81
2024/01/23 06:26:46;;;;;;;26.08;13.45;;;;;;;-7.86;100.00;61205.28;5026431;28;20191;-80
2024/01/23 06:29:13;;;;;;;38.38;16.50;;;;;;;-8.17;100.00;61165.84;5028832;28;20442;-81
2024/01/23 06:31:41;;;;;;;26.70;13.30;;;;;;;-8.64;100.00;61123.56;5035873;28;20209;-80
2024/01/23 06:34:08;;;;;;;24.73;13.23;;;;;;;-8.50;100.00;61135.31;5020662;28;20322;-80
2024/01/23 06:36:37;;;;;;;29.00;14.50;;;;;;;-8.33;100.00;61154.56;5023261;28;20198;-81
2024/01/23 06:39:05;;;;;;;41.55;17.63;;;;;;;-8.61;100.00;61121.69;5022028;28;20207;-80
2024/01/23 06:41:33;;;;;;;42.00;19.02;;;;;;;-8.82;100.00;61108.25;5019140;28;20215;-82
2024/01/23 06:44:00;;;;;;;34.33;18.48;;;;;;;-8.71;100.00;61121.88;5020586;28;20269;-80
2024/01/23 06:46:27;;;;;;;46.05;21.40;;;;;;;-8.76;100.00;61111.38;5025065;28;20203;-81
2024/01/23 06:48:54;;;;;;;43.03;21.65;;;;;;;-8.61;100.00;61121.69;5014732;28;20196;-81
2024/01/23 06:51:21;;;;;;;54.38;24.13;;;;;;;-8.54;100.00;61136.19;5028439;28;20293;-81
2024/01/23 06:53:48;;;;;;;58.15;22.75;;;;;;;-8.49;100.00;61138.81;5030743;28;20262;-81
2024/01/23 06:56:16;;;;;;;55.08;27.30;;;;;;;-8.60;100.00;61130.59;5024433;28;20223;-80
2024/01/23 06:58:44;;;;;;;75.38;29.08;;;;;;;-8.25;100.00;61160.22;5030114;28;20229;-80
2024/01/23 07:01:11;;;;;;;58.53;28.85;;;;;;;-8.16;100.00;61171.81;5023139;28;20550;-81
2024/01/23 07:03:38;;;;;;;78.00;32.20;;;;;;;-8.08;100.00;61175.50;5027597;28;20253;-80
2024/01/23 07:06:06;;;;;;;66.35;33.20;;;;;;;-7.83;100.00;61208.31;5030465;28;20223;-80
2024/01/23 07:08:33;;;;;;;78.97;34.60;;;;;;;-7.61;100.00;61233.16;5015447;28;20226;-79
2024/01/23 07:11:00;;;;;;;63.17;29.92;;;;;;;-7.20;100.00;61264.47;5024855;28;20254;-79
2024/01/23 07:13:27;;;;;;;69.05;32.47;;;;;;;-6.54;100.00;61328.63;5027139;28;20225;-80
2024/01/23 07:15:55;;;;;;;71.95;28.83;;;;;;;-5.98;100.00;61393.09;5011580;28;20286;-81
2024/01/23 07:18:23;;;;;;;63.33;28.30;;;;;;;-5.70;100.00;61419.13;5016870;28;20223;-80
2024/01/23 07:20:50;;;;;;;69.60;28.27;;;;;;;-5.59;100.00;61427.34;5019671;28;20223;-81
2024/01/23 07:23:17;;;;;;;64.40;29.75;;;;;;;-5.63;100.00;61426.25;5035783;28;20183;-80
2024/01/23 07:25:44;;;;;;;62.97;29.73;;;;;;;-5.65;100.00;61421.72;5027715;28;20512;-81
2024/01/23 07:28:11;;;;;;;60.60;28.42;;;;;;;-5.20;100.00;61469.56;5025591;28;20234;-80
2024/01/23 07:30:38;;;;;;;64.18;27.73;;;;;;;-5.04;100.00;61488.84;5035150;28;20261;-81
2024/01/23 07:33:07;;;;;;;60.33;28.77;;;;;;;-4.69;100.00;61524.03;5017379;28;20390;-81
2024/01/23 07:35:34;;;;;;;54.70;27.95;;;;;;;-5.08;100.00;61487.25;5026748;28;20222;-80
2024/01/23 07:38:01;;;;;;;56.22;28.48;;;;;;;-5.40;100.00;61452.16;5019396;28;20214;-80
2024/01/23 07:40:28;;;;;;;62.60;30.27;;;;;;;-5.37;100.00;61450.25;5035321;28;20257;-81
2024/01/23 07:42:55;;;;;;;74.90;34.58;;;;;;;-5.37;100.00;61452.22;5032989;28;20214;-81
2024/01/23 07:45:22;;;;;;;72.05;33.25;;;;;;;-5.54;100.00;61430.44;5024091;28;20289;-80
2024/01/23 07:47:49;;;;;;;82.05;38.28;;;;;;;-5.30;100.00;61459.38;5016478;28;20204;-80
2024/01/23 07:50:18;;;;;;;84.93;35.55;;;;;;;-5.29;100.00;61460.88;5016997;28;20229;-80
2024/01/23 07:52:45;;;;;;;90.75;37.80;;;;;;;-5.39;100.00;61448.22;5020196;28;20203;-80
2024/01/23 07:55:12;;;;;;;84.63;37.75;;;;;;;-5.66;100.00;61417.72;5021850;28;20230;-81
2024/01/23 07:57:40;;;;;;;100.13;42.55;;;;;;;-5.43;100.00;61441.16;5016279;28;20211;-81
2024/01/23 08:00:07;;;;;;;84.05;39.45;;;;;;;-5.25;100.00;61464.97;5029061;28;20234;-81
2024/01/23 08:02:34;;;;;;;102.68;43.03;;;;;;;-5.08;100.00;61479.31;5034461;28;20205;-80
2024/01/23 08:05:01;;;;;;;80.75;35.38;;;;;;;-4.94;100.00;61501.03;5033639;28;20238;-81
2024/01/23 08:07:30;;;;;;;69.20;31.17;;;;;;;-4.80;100.00;61510.34;5021226;28;20206;-80
2024/01/23 08:09:57;;;;;;;63.75;29.55;;;;;;;-4.85;100.00;61503.25;5034669;28;20225;-81
2024/01/23 08:12:24;;;;;;;71.60;32.53;;;;;;;-4.75;100.00;61515.94;5024483;28;20211;-81
2024/01/23 08:14:51;;;;;;;63.58;33.63;;;;;;;-4.73;100.00;61515.00;5028249;28;20223;-81
2024/01/23 08:17:18;;;;;;;61.72;32.53;;;;;;;-4.60;100.00;61525.25;5032387;28;20381;-81
2024/01/23 08:19:45;;;;;;;71.30;31.67;;;;;;;-4.75;100.00;61515.94;5034237;28;20222;-80
2024/01/23 08:22:12;;;;;;;60.97;31.67;;;;;;;-4.68;100.00;61527.03;5033674;28;20195;-80
2024/01/23 08:24:40;;;;;;;69.03;33.22;;;;;;;-4.35;100.00;61553.75;5032599;28;20306;-81
2024/01/23 08:27:08;;;;;;;72.97;33.35;;;;;;;-4.13;100.00;61573.72;5022896;28;20261;-81
2024/01/23 08:29:35;;;;;;;72.88;33.58;;;;;;;-4.12;100.00;61579.19;5016324;28;20222;-82
2024/01/23 08:32:03;;;;;;;91.15;35.90;;;;;;;-4.26;100.00;61565.41;5033404;28;20194;-81
2024/01/23 08:34:30;;;;;;;83.57;37.92;;;;;;;-4.31;100.00;61554.81;5032390;28;20241;-81
2024/01/23 08:36:57;;;;;;;85.72;36.15;;;;;;;-4.37;100.00;61551.19;5036894;28;20309;-82
2024/01/23 08:39:23;;;;;;;102.20;43.30;;;;;;;-4.12;100.00;61572.25;5020154;28;20222;-81
2024/01/23 08:41:53;;;;;;;101.53;43.30;;;;;;;-4.43;100.00;61547.56;5031366;28;20250;-82
2024/01/23 08:44:21;;;;;;;103.50;47.42;;;;;;;-4.31;100.00;61552.34;5035238;28;20364;-83
2024/01/23 08:46:48;;;;;;;109.45;46.80;;;;;;;-4.44;100.00;61549.03;5022406;28;20204;-82
2024/01/23 08:49:15;;;;;;;99.57;44.67;;;;;;;-4.85;100.00;61505.25;5030600;28;20251;-83
2024/01/23 08:51:42;;;;;;;105.15;46.67;;;;;;;-4.59;100.00;61529.25;5029818;28;20262;-83
2024/01/23 08:54:09;;;;;;;105.18;45.00;;;;;;;-4.50;100.00;61538.44;5019757;28;20237;-82
2024/01/23 08:56:37;;;;;;;110.50;48.60;;;;;;;-4.50;100.00;61537.94;5033649;28;20265;-82
2024/01/23 08:59:05;;;;;;;94.00;40.97;;;;;;;-4.48;100.00;61542.97;5035838;28;20221;-82
2024/01/23 09:01:32;;;;;;;106.10;47.08;;;;;;;-4.53;100.00;61540.34;5036595;28;20233;-82
2024/01/23 09:03:59;;;;;;;115.68;47.55;;;;;;;-4.66;100.00;61521.63;5033423;28;20206;-83
2024/01/23 09:06:27;;;;;;;115.65;47.05;;;;;;;-4.61;100.00;61526.72;5035211;28;20206;-82
2024/01/23 09:08:54;;;;;;;120.60;48.65;;;;;;;-4.34;100.00;61559.22;5037165;28;20217;-82
2024/01/23 09:11:21;;;;;;;123.30;49.72;;;;;;;-4.08;100.00;61583.28;5036880;28;20278;-82
2024/01/23 09:13:48;;;;;;;110.38;50.15;;;;;;;-3.91;100.00;61600.63;5032200;28;20207;-83
2024/01/23 09:16:17;;;;;;;125.20;52.70;;;;;;;-4.07;100.00;61579.34;5032970;28;20310;-83
2024/01/23 09:18:48;;;;;;;134.27;53.38;;;;;;;-3.89;100.00;61595.72;5027280;28;20195;-84
2024/01/23 09:21:15;;;;;;;126.20;54.65;;;;;;;-3.48;100.00;61641.53;5028184;28;20230;-84
2024/01/23 09:23:42;;;;;;;125.07;53.80;;;;;;;-3.23;100.00;61664.56;5033966;28;20199;-82
2024/01/23 09:26:10;;;;;;;125.40;54.30;;;;;;;-3.22;100.00;61670.56;5033827;28;20238;-83
2024/01/23 09:28:37;;;;;;;128.18;52.72;;;;;;;-3.25;100.00;61668.03;5032362;28;20256;-81
2024/01/23 09:31:04;;;;;;;120.47;51.95;;;;;;;-3.22;100.00;61673.56;5032297;28;20247;-80
2024/01/23 09:33:33;;;;;;;132.02;56.58;;;;;;;-3.29;100.00;61671.41;5035231;28;20199;-82
2024/01/23 09:36:00;;;;;;;124.18;52.30;;;;;;;-3.14;100.00;61676.75;5021922;28;20273;-82
2024/01/23 09:38:27;;;;;;;119.70;52.80;;;;;;;-3.10;100.00;61688.31;5031507;28;20218;-82
2024/01/23 09:40:54;;;;;;;126.50;51.83;;;;;;;-2.87;100.00;61709.34;5024324;28;20258;-82
2024/01/23 09:43:21;;;;;;;113.68;47.47;;;;;;;-2.82;100.00;61708.94;5033170;28;20233;-82
2024/01/23 09:45:48;;;;;;;111.88;49.80;;;;;;;-2.66;100.00;61733.25;5030564;28;20251;-83
2024/01/23 09:48:15;;;;;;;110.53;51.75;;;;;;;-2.77;99.13;61714.06;5026376;28;20238;-84
2024/01/23 09:50:44;;;;;;;117.57;51.53;;;;;;;-2.91;100.00;61702.75;5029419;28;20227;-83
2024/01/23 09:53:11;;;;;;;122.50;50.30;;;;;;;-2.93;99.91;61700.69;5023958;28;20206;-83
2024/01/23 09:55:38;;;;;;;119.50;53.58;;;;;;;-2.86;99.00;61714.81;5027110;28;20224;-83
2024/01/23 09:58:07;;;;;;;139.32;55.50;;;;;;;-2.76;100.00;61715.56;5029634;28;20202;-83
2024/01/23 10:00:35;;;;;;;124.60;52.80;;;;;;;-2.29;99.17;61765.59;5029303;28;20242;-82
2024/01/23 10:03:02;;;;;;;128.27;52.50;;;;;;;-2.08;97.33;61784.06;5030931;28;20198;-83
2024/01/23 10:05:29;;;;;;;134.65;56.00;;;;;;;-2.36;94.45;61755.94;5025102;28;20285;-83
2024/01/23 10:07:57;;;;;;;136.07;53.17;;;;;;;-2.20;95.77;61769.81;5022228;28;20198;-81
2024/01/23 10:10:25;;;;;;;130.13;54.65;;;;;;;-2.20;94.90;61771.78;5030100;28;20280;-82
2024/01/23 10:12:52;;;;;;;128.98;52.42;;;;;;;-2.27;94.33;61764.63;5027338;28;20198;-82
2024/01/23 10:15:21;;;;;;;124.35;55.38;;;;;;;-2.34;95.50;61758.00;5025124;28;20278;-83
2024/01/23 10:17:49;;;;;;;124.90;50.55;;;;;;;-2.06;96.24;61788.59;5029381;28;20217;-83
2024/01/23 10:20:16;;;;;;;129.55;53.88;;;;;;;-1.80;94.15;61815.19;5020975;28;20225;-82
2024/01/23 10:22:44;;;;;;;133.10;57.65;;;;;;;-1.83;93.69;61807.16;5024725;28;20253;-81
2024/01/23 10:25:15;;;;;;;127.57;52.92;;;;;;;-1.80;93.36;61807.72;5026323;28;20215;-81
2024/01/23 10:27:41;;;;;;;127.47;54.83;;;;;;;-1.62;92.92;61831.63;5027198;28;20199;-81
2024/01/23 10:30:09;;;;;;;126.25;54.97;;;;;;;-1.55;91.38;61838.78;5031196;28;20227;-82
2024/01/23 10:32:37;;;;;;;125.85;54.33;;;;;;;-1.35;91.35;61858.75;5033517;28;20265;-83
2024/01/23 10:35:04;;;;;;;138.65;56.45;;;;;;;-1.23;90.69;61871.53;5024008;28;20227;-83
2024/01/23 10:37:31;;;;;;;132.00;55.03;;;;;;;-1.25;90.82;61868.97;5024516;28;20459;-83
2024/01/23 10:39:59;;;;;;;127.78;54.38;;;;;;;-1.16;90.59;61880.69;5026577;28;20245;-82
2024/01/23 10:42:27;;;;;;;125.85;56.88;;;;;;;-1.01;89.24;61896.03;5024609;28;20203;-82
2024/01/23 10:44:54;;;;;;;129.18;55.80;;;;;;;-1.22;89.11;61877.03;5020468;28;20238;-81
2024/01/23 10:47:21;;;;;;;122.72;56.83;;;;;;;-1.27;90.75;61874.94;5024742;28;20254;-83
2024/01/23 10:49:48;;;;;;;118.93;57.25;;;;;;;-1.14;90.38;61884.72;5021929;28;20231;-82
2024/01/23 10:52:18;;;;;;;114.20;54.08;;;;;;;-1.10;90.60;61888.81;5026125;28;20209;-81
2024/01/23 10:54:45;;;;;;;124.50;56.42;;;;;;;-0.97;89.96;61897.66;5019397;28;20277;-82
2024/01/23 10:57:14;;;;;;;134.98;58.53;;;;;;;-0.85;88.79;61914.41;5018539;28;20213;-83
2024/01/23 10:59:42;;;;;;;138.45;56.08;;;;;;;-0.74;88.09;61926.19;5021606;28;20222;-79
2024/01/23 11:02:14;;;;;;;134.57;60.30;;;;;;;-0.70;88.92;61930.28;5026608;28;20202;-81
2024/01/23 11:04:41;;;;;;;131.13;58.42;;;;;;;-0.50;87.89;61950.25;5026860;28;20227;-81
2024/01/23 11:07:15;;;;;;;148.40;59.33;;;;;;;-0.52;85.76;61946.19;5027574;28;20254;-81
2024/01/23 11:09:45;;;;;;;131.80;57.45;;;;;;;-0.34;85.04;61964.66;5018428;28;20215;-82